sensor_id;sensor_type;location;lat;lon;timestamp;pressure;altitude;pressure_sealevel;temperature
74321;BMP280;62738;45.772;4.804;2022-09-06T00:02:15;-23937.59;;;25.86
74321;BMP280;62738;45.772;4.804;2022-09-06T00:05:03;-23938.34;;;25.88
74321;BMP280;62738;45.772;4.804;2022-09-06T00:07:50;-23931.78;;;25.74
74321;BMP280;62738;45.772;4.804;2022-09-06T00:10:37;-23931.78;;;25.74
74321;BMP280;62738;45.772;4.804;2022-09-06T00:13:24;-23929.34;;;25.69
74321;BMP280;62738;45.772;4.804;2022-09-06T00:16:23;-23929.59;;;25.70
74321;BMP280;62738;45.772;4.804;2022-09-06T00:19:15;-23917.94;;;25.46
74321;BMP280;62738;45.772;4.804;2022-09-06T00:22:03;-23917.22;;;25.44
74321;BMP280;62738;45.772;4.804;2022-09-06T00:24:50;-23924.50;;;25.59
74321;BMP280;62738;45.772;4.804;2022-09-06T00:27:37;-23923.53;;;25.57
74321;BMP280;62738;45.772;4.804;2022-09-06T00:30:24;-23920.63;;;25.51
74321;BMP280;62738;45.772;4.804;2022-09-06T00:33:12;-23918.69;;;25.47
74321;BMP280;62738;45.772;4.804;2022-09-06T00:35:59;-23914.78;;;25.39
74321;BMP280;62738;45.772;4.804;2022-09-06T00:38:47;-23915.50;;;25.41
74321;BMP280;62738;45.772;4.804;2022-09-06T00:41:34;-23912.38;;;25.34
74321;BMP280;62738;45.772;4.804;2022-09-06T00:44:21;-23906.06;;;25.22
74321;BMP280;62738;45.772;4.804;2022-09-06T00:47:08;-23903.38;;;25.16
74321;BMP280;62738;45.772;4.804;2022-09-06T00:49:57;-23916.00;;;25.42
74321;BMP280;62738;45.772;4.804;2022-09-06T00:52:46;-23924.00;;;25.58
74321;BMP280;62738;45.772;4.804;2022-09-06T00:55:34;-23924.25;;;25.59
74321;BMP280;62738;45.772;4.804;2022-09-06T00:58:21;-23906.53;;;25.23
74321;BMP280;62738;45.772;4.804;2022-09-06T01:01:09;-23917.69;;;25.45
74321;BMP280;62738;45.772;4.804;2022-09-06T01:03:56;-23921.34;;;25.53
74321;BMP280;62738;45.772;4.804;2022-09-06T01:07:05;-23911.16;;;25.32
74321;BMP280;62738;45.772;4.804;2022-09-06T01:16:38;-23922.56;;;25.55
74321;BMP280;62738;45.772;4.804;2022-09-06T01:25:35;-23910.91;;;25.31
74321;BMP280;62738;45.772;4.804;2022-09-06T01:28:31;-23912.38;;;25.34
74321;BMP280;62738;45.772;4.804;2022-09-06T01:31:41;-23905.31;;;25.20
74321;BMP280;62738;45.772;4.804;2022-09-06T01:34:43;-23894.63;;;24.98
74321;BMP280;62738;45.772;4.804;2022-09-06T01:37:31;-23899.50;;;25.08
74321;BMP280;62738;45.772;4.804;2022-09-06T01:40:18;-23896.34;;;25.02
74321;BMP280;62738;45.772;4.804;2022-09-06T01:43:09;-23894.38;;;24.98
74321;BMP280;62738;45.772;4.804;2022-09-06T01:46:14;-23887.09;;;24.83
74321;BMP280;62738;45.772;4.804;2022-09-06T01:55:04;-23880.56;;;24.69
74321;BMP280;62738;45.772;4.804;2022-09-06T01:58:56;-23881.03;;;24.70
74321;BMP280;62738;45.772;4.804;2022-09-06T02:04:39;-23891.00;;;24.91
74321;BMP280;62738;45.772;4.804;2022-09-06T02:07:31;-23896.09;;;25.01
74321;BMP280;62738;45.772;4.804;2022-09-06T02:10:36;-23890.50;;;24.90
74321;BMP280;62738;45.772;4.804;2022-09-06T02:13:32;-23890.75;;;24.90
74321;BMP280;62738;45.772;4.804;2022-09-06T02:16:23;-23883.69;;;24.76
74321;BMP280;62738;45.772;4.804;2022-09-06T02:19:51;-23880.31;;;24.69
74321;BMP280;62738;45.772;4.804;2022-09-06T02:22:33;-23885.16;;;24.79
74321;BMP280;62738;45.772;4.804;2022-09-06T02:25:29;-23891.00;;;24.91
74321;BMP280;62738;45.772;4.804;2022-09-06T02:28:17;-23878.38;;;24.65
74321;BMP280;62738;45.772;4.804;2022-09-06T02:31:19;-23871.09;;;24.50
74321;BMP280;62738;45.772;4.804;2022-09-06T02:34:07;-23863.31;;;24.34
74321;BMP280;62738;45.772;4.804;2022-09-06T02:36:56;-23869.13;;;24.46
74321;BMP280;62738;45.772;4.804;2022-09-06T02:39:43;-23871.56;;;24.51
74321;BMP280;62738;45.772;4.804;2022-09-06T02:42:30;-23867.19;;;24.42
74321;BMP280;62738;45.772;4.804;2022-09-06T02:45:17;-23865.25;;;24.38
74321;BMP280;62738;45.772;4.804;2022-09-06T02:48:04;-23869.13;;;24.46
74321;BMP280;62738;45.772;4.804;2022-09-06T02:50:51;-23864.28;;;24.36
74321;BMP280;62738;45.772;4.804;2022-09-06T02:53:39;-23869.63;;;24.47
74321;BMP280;62738;45.772;4.804;2022-09-06T02:56:26;-23870.84;;;24.50
74321;BMP280;62738;45.772;4.804;2022-09-06T02:59:13;-23873.50;;;24.55
74321;BMP280;62738;45.772;4.804;2022-09-06T03:02:00;-23875.44;;;24.59
74321;BMP280;62738;45.772;4.804;2022-09-06T03:04:47;-23867.69;;;24.43
74321;BMP280;62738;45.772;4.804;2022-09-06T03:07:34;-23857.97;;;24.23
74321;BMP280;62738;45.772;4.804;2022-09-06T03:10:22;-23853.13;;;24.13
74321;BMP280;62738;45.772;4.804;2022-09-06T03:13:10;-23848.75;;;24.04
74321;BMP280;62738;45.772;4.804;2022-09-06T03:15:58;-23853.63;;;24.14
74321;BMP280;62738;45.772;4.804;2022-09-06T03:18:45;-23848.25;;;24.03
74321;BMP280;62738;45.772;4.804;2022-09-06T03:21:33;-23853.38;;;24.14
74321;BMP280;62738;45.772;4.804;2022-09-06T03:24:20;-23850.69;;;24.08
74321;BMP280;62738;45.772;4.804;2022-09-06T03:27:07;-23858.47;;;24.24
74321;BMP280;62738;45.772;4.804;2022-09-06T03:29:54;-23849.72;;;24.06
74321;BMP280;62738;45.772;4.804;2022-09-06T03:32:41;-23853.38;;;24.14
74321;BMP280;62738;45.772;4.804;2022-09-06T03:35:28;-23851.91;;;24.11
74321;BMP280;62738;45.772;4.804;2022-09-06T03:38:16;-23846.56;;;24.00
74321;BMP280;62738;45.772;4.804;2022-09-06T03:41:03;-23837.34;;;23.81
74321;BMP280;62738;45.772;4.804;2022-09-06T03:43:50;-23835.63;;;23.77
74321;BMP280;62738;45.772;4.804;2022-09-06T03:46:37;-23844.38;;;23.95
74321;BMP280;62738;45.772;4.804;2022-09-06T03:49:24;-23854.56;;;24.16
74321;BMP280;62738;45.772;4.804;2022-09-06T03:52:11;-23855.06;;;24.17
74321;BMP280;62738;45.772;4.804;2022-09-06T03:54:58;-23856.53;;;24.20
74321;BMP280;62738;45.772;4.804;2022-09-06T03:57:45;-23850.22;;;24.07
74321;BMP280;62738;45.772;4.804;2022-09-06T04:00:32;-23842.91;;;23.92
74321;BMP280;62738;45.772;4.804;2022-09-06T04:03:19;-23844.63;;;23.96
74321;BMP280;62738;45.772;4.804;2022-09-06T04:06:08;-23841.47;;;23.89
74321;BMP280;62738;45.772;4.804;2022-09-06T04:08:55;-23835.16;;;23.77
74321;BMP280;62738;45.772;4.804;2022-09-06T04:11:42;-23834.91;;;23.76
74321;BMP280;62738;45.772;4.804;2022-09-06T04:14:30;-23824.94;;;23.56
74321;BMP280;62738;45.772;4.804;2022-09-06T04:17:17;-23833.69;;;23.74
74321;BMP280;62738;45.772;4.804;2022-09-06T04:20:05;-23835.16;;;23.77
74321;BMP280;62738;45.772;4.804;2022-09-06T04:22:52;-23823.50;;;23.53
74321;BMP280;62738;45.772;4.804;2022-09-06T04:25:39;-23815.72;;;23.37
74321;BMP280;62738;45.772;4.804;2022-09-06T04:28:26;-23816.69;;;23.39
74321;BMP280;62738;45.772;4.804;2022-09-06T04:31:14;-23825.69;;;23.57
74321;BMP280;62738;45.772;4.804;2022-09-06T04:34:01;-23834.19;;;23.75
74321;BMP280;62738;45.772;4.804;2022-09-06T04:36:48;-23824.94;;;23.56
74321;BMP280;62738;45.772;4.804;2022-09-06T04:39:35;-23828.13;;;23.62
74321;BMP280;62738;45.772;4.804;2022-09-06T04:42:22;-23822.53;;;23.51
74321;BMP280;62738;45.772;4.804;2022-09-06T04:45:09;-23822.78;;;23.51
74321;BMP280;62738;45.772;4.804;2022-09-06T04:47:56;-23807.97;;;23.21
74321;BMP280;62738;45.772;4.804;2022-09-06T04:50:43;-23810.88;;;23.27
74321;BMP280;62738;45.772;4.804;2022-09-06T04:53:30;-23814.75;;;23.35
74321;BMP280;62738;45.772;4.804;2022-09-06T04:56:22;-23808.47;;;23.22
74321;BMP280;62738;45.772;4.804;2022-09-06T04:59:10;-23801.41;;;23.07
74321;BMP280;62738;45.772;4.804;2022-09-06T05:01:57;-23808.69;;;23.22
74321;BMP280;62738;45.772;4.804;2022-09-06T05:04:44;-23808.22;;;23.21
74321;BMP280;62738;45.772;4.804;2022-09-06T05:07:31;-23821.06;;;23.48
74321;BMP280;62738;45.772;4.804;2022-09-06T05:10:18;-23825.69;;;23.57
74321;BMP280;62738;45.772;4.804;2022-09-06T05:13:06;-23829.81;;;23.66
74321;BMP280;62738;45.772;4.804;2022-09-06T05:15:53;-23832.72;;;23.72
74321;BMP280;62738;45.772;4.804;2022-09-06T05:18:40;-23841.22;;;23.89
74321;BMP280;62738;45.772;4.804;2022-09-06T05:21:27;-23850.44;;;24.08
74321;BMP280;62738;45.772;4.804;2022-09-06T05:24:14;-23852.16;;;24.11
74321;BMP280;62738;45.772;4.804;2022-09-06T05:27:01;-23846.81;;;24.00
74321;BMP280;62738;45.772;4.804;2022-09-06T05:29:50;-23848.75;;;24.04
74321;BMP280;62738;45.772;4.804;2022-09-06T05:32:37;-23837.56;;;23.81
74321;BMP280;62738;45.772;4.804;2022-09-06T05:35:24;-23841.94;;;23.90
74321;BMP280;62738;45.772;4.804;2022-09-06T05:38:11;-23848.75;;;24.04
74321;BMP280;62738;45.772;4.804;2022-09-06T05:40:58;-23834.19;;;23.75
74321;BMP280;62738;45.772;4.804;2022-09-06T05:43:45;-23813.78;;;23.33
74321;BMP280;62738;45.772;4.804;2022-09-06T05:46:32;-23813.78;;;23.33
74321;BMP280;62738;45.772;4.804;2022-09-06T05:49:19;-23821.31;;;23.48
74321;BMP280;62738;45.772;4.804;2022-09-06T05:52:06;-23824.47;;;23.55
74321;BMP280;62738;45.772;4.804;2022-09-06T05:54:53;-23825.44;;;23.57
74321;BMP280;62738;45.772;4.804;2022-09-06T05:57:40;-23827.88;;;23.62
74321;BMP280;62738;45.772;4.804;2022-09-06T06:00:27;-23832.47;;;23.71
74321;BMP280;62738;45.772;4.804;2022-09-06T06:03:14;-23835.16;;;23.77
74321;BMP280;62738;45.772;4.804;2022-09-06T06:06:01;-23840.00;;;23.86
74321;BMP280;62738;45.772;4.804;2022-09-06T06:08:48;-23838.06;;;23.82
74321;BMP280;62738;45.772;4.804;2022-09-06T06:11:36;-23847.28;;;24.01
74321;BMP280;62738;45.772;4.804;2022-09-06T06:14:23;-23855.53;;;24.18
74321;BMP280;62738;45.772;4.804;2022-09-06T06:17:10;-23854.56;;;24.16
74321;BMP280;62738;45.772;4.804;2022-09-06T06:19:57;-23863.78;;;24.35
74321;BMP280;62738;45.772;4.804;2022-09-06T06:22:44;-23863.78;;;24.35
74321;BMP280;62738;45.772;4.804;2022-09-06T06:25:31;-23859.69;;;24.27
74321;BMP280;62738;45.772;4.804;2022-09-06T06:28:18;-23869.38;;;24.47
74321;BMP280;62738;45.772;4.804;2022-09-06T06:31:07;-23863.56;;;24.35
74321;BMP280;62738;45.772;4.804;2022-09-06T06:33:54;-23847.78;;;24.02
74321;BMP280;62738;45.772;4.804;2022-09-06T06:36:41;-23850.94;;;24.09
74321;BMP280;62738;45.772;4.804;2022-09-06T06:39:29;-23865.25;;;24.38
74321;BMP280;62738;45.772;4.804;2022-09-06T06:42:17;-23856.03;;;24.19
74321;BMP280;62738;45.772;4.804;2022-09-06T06:45:04;-23867.94;;;24.44
74321;BMP280;62738;45.772;4.804;2022-09-06T06:47:51;-23870.38;;;24.49
74321;BMP280;62738;45.772;4.804;2022-09-06T06:50:38;-23883.69;;;24.76
74321;BMP280;62738;45.772;4.804;2022-09-06T06:53:25;-23888.56;;;24.86
74321;BMP280;62738;45.772;4.804;2022-09-06T06:56:19;-23886.13;;;24.81
74321;BMP280;62738;45.772;4.804;2022-09-06T06:59:07;-23875.94;;;24.60
74321;BMP280;62738;45.772;4.804;2022-09-06T07:01:53;-23869.63;;;24.47
74321;BMP280;62738;45.772;4.804;2022-09-06T07:04:41;-23870.13;;;24.48
74321;BMP280;62738;45.772;4.804;2022-09-06T07:07:28;-23851.41;;;24.10
74321;BMP280;62738;45.772;4.804;2022-09-06T07:10:20;-23867.19;;;24.42
74321;BMP280;62738;45.772;4.804;2022-09-06T07:13:22;-23868.41;;;24.45
74321;BMP280;62738;45.772;4.804;2022-09-06T07:16:14;-23872.78;;;24.53
74321;BMP280;62738;45.772;4.804;2022-09-06T07:19:01;-23881.53;;;24.71
74321;BMP280;62738;45.772;4.804;2022-09-06T07:21:49;-23887.59;;;24.84
74321;BMP280;62738;45.772;4.804;2022-09-06T07:24:36;-23881.53;;;24.71
74321;BMP280;62738;45.772;4.804;2022-09-06T07:27:23;-23891.72;;;24.92
74321;BMP280;62738;45.772;4.804;2022-09-06T07:30:30;-23877.38;;;24.63
74321;BMP280;62738;45.772;4.804;2022-09-06T07:33:17;-23888.81;;;24.86
74321;BMP280;62738;45.772;4.804;2022-09-06T07:36:06;-23887.59;;;24.84
74321;BMP280;62738;45.772;4.804;2022-09-06T07:38:53;-23897.78;;;25.05
74321;BMP280;62738;45.772;4.804;2022-09-06T07:41:41;-23903.13;;;25.16
74321;BMP280;62738;45.772;4.804;2022-09-06T07:44:28;-23916.72;;;25.43
74321;BMP280;62738;45.772;4.804;2022-09-06T07:47:15;-23920.13;;;25.50
74321;BMP280;62738;45.772;4.804;2022-09-06T07:50:28;-23921.09;;;25.52
74321;BMP280;62738;45.772;4.804;2022-09-06T07:53:36;-23926.94;;;25.64
74321;BMP280;62738;45.772;4.804;2022-09-06T07:56:24;-23924.97;;;25.60
74321;BMP280;62738;45.772;4.804;2022-09-06T07:59:11;-23935.19;;;25.81
74321;BMP280;62738;45.772;4.804;2022-09-06T08:01:58;-23936.16;;;25.83
74321;BMP280;62738;45.772;4.804;2022-09-06T08:04:45;-23914.31;;;25.38
74321;BMP280;62738;45.772;4.804;2022-09-06T08:07:37;-23918.91;;;25.48
74321;BMP280;62738;45.772;4.804;2022-09-06T08:10:24;-23886.63;;;24.82
74321;BMP280;62738;45.772;4.804;2022-09-06T08:13:13;-23910.41;;;25.30
74321;BMP280;62738;45.772;4.804;2022-09-06T08:16:05;-23917.22;;;25.44
74321;BMP280;62738;45.772;4.804;2022-09-06T08:18:54;-23934.69;;;25.80
74321;BMP280;62738;45.772;4.804;2022-09-06T08:21:41;-23941.97;;;25.95
74321;BMP280;62738;45.772;4.804;2022-09-06T08:24:29;-23945.13;;;26.02
74321;BMP280;62738;45.772;4.804;2022-09-06T08:27:17;-23952.91;;;26.17
74321;BMP280;62738;45.772;4.804;2022-09-06T08:30:04;-23958.00;;;26.28
74321;BMP280;62738;45.772;4.804;2022-09-06T08:32:52;-23965.78;;;26.44
74321;BMP280;62738;45.772;4.804;2022-09-06T08:35:39;-23977.44;;;26.68
74321;BMP280;62738;45.772;4.804;2022-09-06T08:38:26;-23972.09;;;26.57
74321;BMP280;62738;45.772;4.804;2022-09-06T08:41:24;-23985.69;;;26.84
74321;BMP280;62738;45.772;4.804;2022-09-06T08:44:15;-23988.63;;;26.90
74321;BMP280;62738;45.772;4.804;2022-09-06T08:47:23;-23987.16;;;26.87
74321;BMP280;62738;45.772;4.804;2022-09-06T08:50:10;-24000.28;;;27.14
74321;BMP280;62738;45.772;4.804;2022-09-06T08:53:10;-23995.16;;;27.04
74321;BMP280;62738;45.772;4.804;2022-09-06T08:59:04;-23995.88;;;27.05
74321;BMP280;62738;45.772;4.804;2022-09-06T09:02:08;-24003.66;;;27.21
74321;BMP280;62738;45.772;4.804;2022-09-06T09:05:01;-24003.19;;;27.20
74321;BMP280;62738;45.772;4.804;2022-09-06T09:10:46;-23999.31;;;27.12
74321;BMP280;62738;45.772;4.804;2022-09-06T09:16:33;-24003.41;;;27.21
74321;BMP280;62738;45.772;4.804;2022-09-06T09:19:20;-23999.06;;;27.12
74321;BMP280;62738;45.772;4.804;2022-09-06T09:22:08;-23993.47;;;27.00
74321;BMP280;62738;45.772;4.804;2022-09-06T09:24:58;-23996.88;;;27.07
74321;BMP280;62738;45.772;4.804;2022-09-06T09:27:46;-24015.31;;;27.45
74321;BMP280;62738;45.772;4.804;2022-09-06T09:30:51;-24021.16;;;27.57
74321;BMP280;62738;45.772;4.804;2022-09-06T09:33:38;-24023.09;;;27.61
74321;BMP280;62738;45.772;4.804;2022-09-06T09:36:26;-24026.97;;;27.69
74321;BMP280;62738;45.772;4.804;2022-09-06T09:39:13;-24033.78;;;27.83
74321;BMP280;62738;45.772;4.804;2022-09-06T09:42:00;-24036.69;;;27.89
74321;BMP280;62738;45.772;4.804;2022-09-06T09:44:48;-24034.28;;;27.84
74321;BMP280;62738;45.772;4.804;2022-09-06T09:47:35;-24030.38;;;27.76
74321;BMP280;62738;45.772;4.804;2022-09-06T09:50:27;-24034.28;;;27.84
74321;BMP280;62738;45.772;4.804;2022-09-06T09:53:18;-24032.31;;;27.80
74321;BMP280;62738;45.772;4.804;2022-09-06T09:56:07;-24030.38;;;27.76
74321;BMP280;62738;45.772;4.804;2022-09-06T09:58:55;-24026.25;;;27.67
74321;BMP280;62738;45.772;4.804;2022-09-06T10:01:44;-24031.34;;;27.78
74321;BMP280;62738;45.772;4.804;2022-09-06T10:04:34;-24032.31;;;27.80
74321;BMP280;62738;45.772;4.804;2022-09-06T10:07:32;-24032.81;;;27.81
74321;BMP280;62738;45.772;4.804;2022-09-06T10:10:33;-24027.69;;;27.70
74321;BMP280;62738;45.772;4.804;2022-09-06T10:13:24;-24031.34;;;27.78
74321;BMP280;62738;45.772;4.804;2022-09-06T10:16:14;-24037.66;;;27.91
74321;BMP280;62738;45.772;4.804;2022-09-06T10:19:20;-24051.50;;;28.19
74321;BMP280;62738;45.772;4.804;2022-09-06T10:22:13;-24041.06;;;27.98
74321;BMP280;62738;45.772;4.804;2022-09-06T10:40:10;-24066.09;;;28.49
74321;BMP280;62738;45.772;4.804;2022-09-06T10:42:59;-24067.56;;;28.52
74321;BMP280;62738;45.772;4.804;2022-09-06T10:46:00;-24073.13;;;28.63
74321;BMP280;62738;45.772;4.804;2022-09-06T10:48:48;-24082.34;;;28.82
74321;BMP280;62738;45.772;4.804;2022-09-06T10:52:02;-24080.66;;;28.79
74321;BMP280;62738;45.772;4.804;2022-09-06T10:54:48;-24086.25;;;28.90
74321;BMP280;62738;45.772;4.804;2022-09-06T10:57:42;-24085.75;;;28.89
74321;BMP280;62738;45.772;4.804;2022-09-06T11:00:51;-24089.16;;;28.96
74321;BMP280;62738;45.772;4.804;2022-09-06T11:03:41;-24073.84;;;28.65
74321;BMP280;62738;45.772;4.804;2022-09-06T11:06:57;-24065.59;;;28.48
74321;BMP280;62738;45.772;4.804;2022-09-06T11:18:33;-24089.41;;;28.96
74321;BMP280;62738;45.772;4.804;2022-09-06T11:27:58;-24104.22;;;29.27
74321;BMP280;62738;45.772;4.804;2022-09-06T11:30:47;-24106.91;;;29.32
74321;BMP280;62738;45.772;4.804;2022-09-06T11:33:36;-24107.88;;;29.34
74321;BMP280;62738;45.772;4.804;2022-09-06T11:36:44;-24116.38;;;29.51
74321;BMP280;62738;45.772;4.804;2022-09-06T11:39:33;-24127.06;;;29.73
74321;BMP280;62738;45.772;4.804;2022-09-06T11:45:48;-24121.72;;;29.62
74321;BMP280;62738;45.772;4.804;2022-09-06T11:51:46;-24147.97;;;30.16
74321;BMP280;62738;45.772;4.804;2022-09-06T11:54:40;-24144.53;;;30.09
74321;BMP280;62738;45.772;4.804;2022-09-06T11:57:29;-24142.59;;;30.05
74321;BMP280;62738;45.772;4.804;2022-09-06T12:00:20;-24147.47;;;30.15
74321;BMP280;62738;45.772;4.804;2022-09-06T12:07:21;-24157.66;;;30.36
74321;BMP280;62738;45.772;4.804;2022-09-06T12:13:40;-24176.63;;;30.74
74321;BMP280;62738;45.772;4.804;2022-09-06T12:19:54;-24184.38;;;30.90
74321;BMP280;62738;45.772;4.804;2022-09-06T12:28:28;-24187.06;;;30.96
74321;BMP280;62738;45.772;4.804;2022-09-06T12:31:37;-24185.84;;;30.93
74321;BMP280;62738;45.772;4.804;2022-09-06T12:34:28;-24176.88;;;30.75
74321;BMP280;62738;45.772;4.804;2022-09-06T12:37:29;-24156.94;;;30.34
74321;BMP280;62738;45.772;4.804;2022-09-06T12:40:18;-24154.28;;;30.29
74321;BMP280;62738;45.772;4.804;2022-09-06T12:43:08;-24143.56;;;30.07
74321;BMP280;62738;45.772;4.804;2022-09-06T12:45:58;-24160.59;;;30.42
74321;BMP280;62738;45.772;4.804;2022-09-06T12:48:59;-24167.88;;;30.57
74321;BMP280;62738;45.772;4.804;2022-09-06T12:51:47;-24171.25;;;30.64
74321;BMP280;62738;45.772;4.804;2022-09-06T12:54:47;-24165.69;;;30.52
74321;BMP280;62738;45.772;4.804;2022-09-06T12:57:34;-24149.16;;;30.18
74321;BMP280;62738;45.772;4.804;2022-09-06T13:00:23;-24147.47;;;30.15
74321;BMP280;62738;45.772;4.804;2022-09-06T13:06:17;-24153.78;;;30.28
74321;BMP280;62738;45.772;4.804;2022-09-06T13:09:13;-24154.03;;;30.28
74321;BMP280;62738;45.772;4.804;2022-09-06T13:12:24;-24159.38;;;30.39
74321;BMP280;62738;45.772;4.804;2022-09-06T13:15:22;-24151.84;;;30.24
74321;BMP280;62738;45.772;4.804;2022-09-06T13:18:20;-24165.69;;;30.52
74321;BMP280;62738;45.772;4.804;2022-09-06T13:21:10;-24167.13;;;30.55
74321;BMP280;62738;45.772;4.804;2022-09-06T13:24:26;-24165.19;;;30.51
74321;BMP280;62738;45.772;4.804;2022-09-06T13:30:32;-24171.75;;;30.65
74321;BMP280;62738;45.772;4.804;2022-09-06T13:33:23;-24164.94;;;30.51
74321;BMP280;62738;45.772;4.804;2022-09-06T13:38:58;-24161.56;;;30.44
74321;BMP280;62738;45.772;4.804;2022-09-06T13:41:55;-24156.22;;;30.33
74321;BMP280;62738;45.772;4.804;2022-09-06T13:47:33;-24133.38;;;29.86
74321;BMP280;62738;45.772;4.804;2022-09-06T13:50:20;-24139.69;;;29.99
74321;BMP280;62738;45.772;4.804;2022-09-06T13:53:18;-24138.47;;;29.97
74321;BMP280;62738;45.772;4.804;2022-09-06T13:56:06;-24136.03;;;29.92
74321;BMP280;62738;45.772;4.804;2022-09-06T13:58:54;-24126.09;;;29.71
74321;BMP280;62738;45.772;4.804;2022-09-06T14:01:43;-24126.81;;;29.73
74321;BMP280;62738;45.772;4.804;2022-09-06T14:04:31;-24125.59;;;29.70
74321;BMP280;62738;45.772;4.804;2022-09-06T14:07:18;-24113.22;;;29.45
74321;BMP280;62738;45.772;4.804;2022-09-06T14:10:06;-24109.56;;;29.38
74321;BMP280;62738;45.772;4.804;2022-09-06T14:12:53;-24107.88;;;29.34
74321;BMP280;62738;45.772;4.804;2022-09-06T14:15:40;-24108.09;;;29.35
74321;BMP280;62738;45.772;4.804;2022-09-06T14:18:27;-24107.63;;;29.34
74321;BMP280;62738;45.772;4.804;2022-09-06T14:21:15;-24099.38;;;29.17
74321;BMP280;62738;45.772;4.804;2022-09-06T14:24:02;-24103.00;;;29.24
74321;BMP280;62738;45.772;4.804;2022-09-06T14:26:50;-24101.56;;;29.21
74321;BMP280;62738;45.772;4.804;2022-09-06T14:29:37;-24098.88;;;29.16
74321;BMP280;62738;45.772;4.804;2022-09-06T14:32:25;-24098.41;;;29.15
74321;BMP280;62738;45.772;4.804;2022-09-06T14:35:12;-24097.44;;;29.13
74321;BMP280;62738;45.772;4.804;2022-09-06T14:38:00;-24094.75;;;29.07
74321;BMP280;62738;45.772;4.804;2022-09-06T14:40:47;-24095.47;;;29.09
74321;BMP280;62738;45.772;4.804;2022-09-06T14:43:35;-24091.59;;;29.01
74321;BMP280;62738;45.772;4.804;2022-09-06T14:46:23;-24092.56;;;29.03
74321;BMP280;62738;45.772;4.804;2022-09-06T14:49:11;-24088.19;;;28.94
74321;BMP280;62738;45.772;4.804;2022-09-06T14:51:58;-24087.47;;;28.92
74321;BMP280;62738;45.772;4.804;2022-09-06T14:54:45;-24086.25;;;28.90
74321;BMP280;62738;45.772;4.804;2022-09-06T14:57:32;-24085.03;;;28.87
74321;BMP280;62738;45.772;4.804;2022-09-06T15:00:19;-24081.41;;;28.80
74321;BMP280;62738;45.772;4.804;2022-09-06T15:03:06;-24074.59;;;28.66
74321;BMP280;62738;45.772;4.804;2022-09-06T15:05:53;-24074.59;;;28.66
74321;BMP280;62738;45.772;4.804;2022-09-06T15:08:40;-24070.47;;;28.58
74321;BMP280;62738;45.772;4.804;2022-09-06T15:11:33;-24063.41;;;28.43
74321;BMP280;62738;45.772;4.804;2022-09-06T15:14:25;-24050.78;;;28.17
74321;BMP280;62738;45.772;4.804;2022-09-06T15:17:12;-23988.63;;;26.90
74321;BMP280;62738;45.772;4.804;2022-09-06T15:20:00;-23960.19;;;26.32
74321;BMP280;62738;45.772;4.804;2022-09-06T15:22:47;-23931.31;;;25.73
74321;BMP280;62738;45.772;4.804;2022-09-06T15:25:54;-23899.97;;;25.09
74321;BMP280;62738;45.772;4.804;2022-09-06T15:28:42;-23897.31;;;25.04
74321;BMP280;62738;45.772;4.804;2022-09-06T15:31:32;-23881.53;;;24.71
74321;BMP280;62738;45.772;4.804;2022-09-06T15:34:22;-23874.47;;;24.57
74321;BMP280;62738;45.772;4.804;2022-09-06T15:37:10;-23867.44;;;24.43
74321;BMP280;62738;45.772;4.804;2022-09-06T15:39:57;-23869.13;;;24.46
74321;BMP280;62738;45.772;4.804;2022-09-06T15:42:44;-23877.63;;;24.63
74321;BMP280;62738;45.772;4.804;2022-09-06T15:45:44;-23876.44;;;24.61
74321;BMP280;62738;45.772;4.804;2022-09-06T15:48:44;-23883.22;;;24.75
74321;BMP280;62738;45.772;4.804;2022-09-06T15:51:34;-23865.97;;;24.40
74321;BMP280;62738;45.772;4.804;2022-09-06T15:54:22;-23865.25;;;24.38
74321;BMP280;62738;45.772;4.804;2022-09-06T15:57:28;-23873.03;;;24.54
74321;BMP280;62738;45.772;4.804;2022-09-06T16:00:15;-23872.53;;;24.53
74321;BMP280;62738;45.772;4.804;2022-09-06T16:03:03;-23889.53;;;24.88
74321;BMP280;62738;45.772;4.804;2022-09-06T16:05:50;-23882.25;;;24.73
74321;BMP280;62738;45.772;4.804;2022-09-06T16:09:00;-23881.28;;;24.71
74321;BMP280;62738;45.772;4.804;2022-09-06T16:11:48;-23876.66;;;24.61
74321;BMP280;62738;45.772;4.804;2022-09-06T16:14:36;-23876.44;;;24.61
74321;BMP280;62738;45.772;4.804;2022-09-06T16:17:23;-23866.47;;;24.41
74321;BMP280;62738;45.772;4.804;2022-09-06T16:20:13;-23852.88;;;24.13
74321;BMP280;62738;45.772;4.804;2022-09-06T16:23:00;-23858.94;;;24.25
74321;BMP280;62738;45.772;4.804;2022-09-06T16:25:51;-23863.31;;;24.34
74321;BMP280;62738;45.772;4.804;2022-09-06T16:28:38;-23865.75;;;24.39
74321;BMP280;62738;45.772;4.804;2022-09-06T16:31:26;-23868.16;;;24.44
74321;BMP280;62738;45.772;4.804;2022-09-06T16:34:14;-23874.00;;;24.56
74321;BMP280;62738;45.772;4.804;2022-09-06T16:37:01;-23878.63;;;24.65
74321;BMP280;62738;45.772;4.804;2022-09-06T16:39:53;-23876.44;;;24.61
74321;BMP280;62738;45.772;4.804;2022-09-06T16:42:41;-23877.38;;;24.63
74321;BMP280;62738;45.772;4.804;2022-09-06T16:45:29;-23879.59;;;24.67
74321;BMP280;62738;45.772;4.804;2022-09-06T16:48:17;-23888.09;;;24.85
74321;BMP280;62738;45.772;4.804;2022-09-06T16:51:15;-23883.22;;;24.75
74321;BMP280;62738;45.772;4.804;2022-09-06T16:54:03;-23881.78;;;24.72
74321;BMP280;62738;45.772;4.804;2022-09-06T16:56:50;-23883.47;;;24.75
74321;BMP280;62738;45.772;4.804;2022-09-06T16:59:38;-23895.34;;;25.00
74321;BMP280;62738;45.772;4.804;2022-09-06T17:02:26;-23906.53;;;25.23
74321;BMP280;62738;45.772;4.804;2022-09-06T17:05:13;-23913.81;;;25.37
74321;BMP280;62738;45.772;4.804;2022-09-06T17:08:00;-23919.41;;;25.49
74321;BMP280;62738;45.772;4.804;2022-09-06T17:10:47;-23915.75;;;25.41
74321;BMP280;62738;45.772;4.804;2022-09-06T17:13:35;-23918.19;;;25.46
74321;BMP280;62738;45.772;4.804;2022-09-06T17:16:23;-23919.16;;;25.48
74321;BMP280;62738;45.772;4.804;2022-09-06T17:19:32;-23921.09;;;25.52
74321;BMP280;62738;45.772;4.804;2022-09-06T17:22:19;-23914.06;;;25.38
74321;BMP280;62738;45.772;4.804;2022-09-06T17:25:07;-23912.13;;;25.34
74321;BMP280;62738;45.772;4.804;2022-09-06T17:27:54;-23899.75;;;25.09
74321;BMP280;62738;45.772;4.804;2022-09-06T17:30:41;-23895.84;;;25.01
74321;BMP280;62738;45.772;4.804;2022-09-06T17:33:30;-23904.81;;;25.19
74321;BMP280;62738;45.772;4.804;2022-09-06T17:36:20;-23910.91;;;25.31
74321;BMP280;62738;45.772;4.804;2022-09-06T17:39:13;-23912.84;;;25.35
74321;BMP280;62738;45.772;4.804;2022-09-06T17:42:01;-23921.59;;;25.53
74321;BMP280;62738;45.772;4.804;2022-09-06T17:44:48;-23931.06;;;25.73